createdAt,value
2022-09-12T00:01:19.505Z,11.60
2022-09-12T00:03:46.942Z,11.80
2022-09-12T00:06:21.862Z,12.30
2022-09-12T00:08:50.216Z,11.83
2022-09-12T00:11:17.634Z,11.80
2022-09-12T00:13:46.494Z,11.90
2022-09-12T00:16:17.668Z,11.20
2022-09-12T00:18:46.851Z,11.90
2022-09-12T00:21:15.032Z,12.17
2022-09-12T00:23:42.432Z,10.90
2022-09-12T00:26:09.845Z,11.37
2022-09-12T00:28:37.643Z,12.03
2022-09-12T00:31:07.602Z,10.80
2022-09-12T00:33:35.656Z,10.93
2022-09-12T00:36:05.640Z,11.60
2022-09-12T00:38:33.156Z,9.87
2022-09-12T00:41:00.575Z,10.77
2022-09-12T00:43:35.871Z,10.20
2022-09-12T00:46:05.945Z,10.33
2022-09-12T00:48:36.165Z,10.40
2022-09-12T00:51:03.924Z,10.87
2022-09-12T00:53:31.350Z,10.53
2022-09-12T00:55:58.916Z,10.30
2022-09-12T00:58:28.959Z,10.37
2022-09-12T01:00:56.602Z,10.40
2022-09-12T01:03:24.557Z,10.77
2022-09-12T01:05:57.782Z,10.77
2022-09-12T01:08:25.939Z,10.60
2022-09-12T01:10:53.376Z,10.97
2022-09-12T01:13:20.786Z,11.07
2022-09-12T01:15:48.233Z,10.97
2022-09-12T01:18:19.679Z,11.00
2022-09-12T01:20:50.363Z,10.40
2022-09-12T01:23:33.312Z,10.83
2022-09-12T01:26:09.241Z,10.60
2022-09-12T01:28:46.496Z,9.97
2022-09-12T01:31:16.664Z,10.93
2022-09-12T01:33:51.032Z,10.70
2022-09-12T01:36:34.478Z,10.30
2022-09-12T01:39:03.482Z,10.30
2022-09-12T01:41:33.530Z,10.30
2022-09-12T01:44:02.964Z,10.33
2022-09-12T01:46:33.850Z,10.30
2022-09-12T01:49:03.179Z,10.00
2022-09-12T01:51:34.075Z,10.37
2022-09-12T01:54:05.176Z,11.27
2022-09-12T01:56:34.783Z,10.57
2022-09-12T01:59:05.148Z,10.20
2022-09-12T02:01:34.787Z,9.67
2022-09-12T02:04:13.867Z,10.37
2022-09-12T02:06:44.660Z,10.40
2022-09-12T02:09:14.002Z,9.97
2022-09-12T02:11:42.816Z,10.73
2022-09-12T02:14:12.276Z,10.13
2022-09-12T02:16:43.105Z,9.77
2022-09-12T02:19:13.487Z,10.10
2022-09-12T02:21:43.226Z,10.13
2022-09-12T02:24:11.372Z,10.00
2022-09-12T02:26:42.520Z,9.70
2022-09-12T02:29:09.930Z,9.73
2022-09-12T02:31:41.534Z,9.00
2022-09-12T02:34:19.567Z,9.33
2022-09-12T02:36:50.914Z,9.77
2022-09-12T02:39:21.238Z,9.43
2022-09-12T02:41:49.176Z,10.17
2022-09-12T02:44:16.586Z,9.73
2022-09-12T02:46:45.861Z,9.00
2022-09-12T02:49:14.875Z,10.00
2022-09-12T02:51:42.298Z,8.30
2022-09-12T02:54:10.292Z,9.40
2022-09-12T02:56:41.476Z,9.60
2022-09-12T02:59:10.119Z,9.20
2022-09-12T03:01:45.827Z,9.90
2022-09-12T03:04:20.390Z,8.77
2022-09-12T03:06:51.784Z,8.83
2022-09-12T03:09:21.294Z,8.43
2022-09-12T03:12:00.821Z,9.00
2022-09-12T03:14:35.061Z,9.70
2022-09-12T03:17:06.495Z,8.83
2022-09-12T03:19:39.651Z,9.17
2022-09-12T03:22:13.854Z,9.67
2022-09-12T03:24:44.168Z,8.90
2022-09-12T03:27:13.922Z,9.07
2022-09-12T03:29:41.918Z,8.57
2022-09-12T03:32:09.348Z,8.30
2022-09-12T03:34:38.114Z,8.20
2022-09-12T03:37:05.970Z,9.13
2022-09-12T03:39:33.535Z,8.70
2022-09-12T03:42:00.957Z,8.30
2022-09-12T03:44:28.376Z,8.20
2022-09-12T03:46:55.740Z,7.90
2022-09-12T03:49:23.126Z,8.40
2022-09-12T03:51:51.839Z,8.30
2022-09-12T03:54:19.290Z,8.40
2022-09-12T03:56:46.703Z,7.60
2022-09-12T03:59:14.099Z,7.97
2022-09-12T04:01:42.297Z,8.27
2022-09-12T04:04:09.699Z,8.00
2022-09-12T04:06:37.138Z,8.00
2022-09-12T04:09:06.467Z,7.80
2022-09-12T04:11:35.709Z,8.33
2022-09-12T04:14:03.109Z,7.97
2022-09-12T04:16:30.519Z,7.47
2022-09-12T04:18:57.961Z,7.40
2022-09-12T04:21:25.579Z,7.50
2022-09-12T04:23:53.048Z,7.50
2022-09-12T04:26:22.348Z,8.20
2022-09-12T04:28:53.698Z,7.77
2022-09-12T04:31:22.644Z,7.87
2022-09-12T04:33:54.330Z,7.93
2022-09-12T04:36:22.798Z,7.40
2022-09-12T04:38:50.590Z,7.57
2022-09-12T04:41:19.186Z,7.90
2022-09-12T04:43:48.696Z,7.70
2022-09-12T04:46:16.850Z,6.87
2022-09-12T04:48:44.914Z,7.57
2022-09-12T04:51:13.812Z,7.80
2022-09-12T04:53:41.390Z,7.33
2022-09-12T04:56:09.836Z,7.83
2022-09-12T04:58:37.662Z,7.90
2022-09-12T05:01:07.296Z,7.17
2022-09-12T05:03:34.710Z,7.23
2022-09-12T05:06:03.176Z,7.83
2022-09-12T05:08:30.624Z,7.10
2022-09-12T05:10:58.860Z,7.10
2022-09-12T05:13:27.405Z,7.60
2022-09-12T05:15:55.325Z,6.23
2022-09-12T05:18:24.094Z,7.27
2022-09-12T05:20:51.546Z,7.57
2022-09-12T05:23:19.252Z,7.53
2022-09-12T05:25:50.760Z,7.50
2022-09-12T05:28:18.120Z,7.17
2022-09-12T05:30:45.569Z,7.10
2022-09-12T05:33:13.036Z,7.67
2022-09-12T05:35:42.102Z,7.33
2022-09-12T05:38:09.559Z,7.50
2022-09-12T05:40:36.895Z,7.30
2022-09-12T05:43:04.982Z,7.70
2022-09-12T05:45:32.659Z,8.03
2022-09-12T05:48:00.111Z,8.40
2022-09-12T05:50:27.507Z,8.13
2022-09-12T05:52:56.383Z,8.07
2022-09-12T05:55:24.279Z,7.67
2022-09-12T05:57:52.063Z,8.30
2022-09-12T06:00:20.582Z,8.43
2022-09-12T06:02:52.583Z,7.13
2022-09-12T06:05:19.956Z,8.77
2022-09-12T06:07:47.652Z,8.37
2022-09-12T06:10:17.862Z,7.80
2022-09-12T06:12:45.222Z,7.97
2022-09-12T06:15:12.724Z,8.27
2022-09-12T06:17:40.102Z,8.50
2022-09-12T06:20:08.005Z,7.60
2022-09-12T06:22:35.384Z,7.80
2022-09-12T06:25:03.043Z,8.40
2022-09-12T06:27:31.775Z,7.63
2022-09-12T06:29:59.396Z,7.60
2022-09-12T06:32:26.743Z,7.17
2022-09-12T06:34:54.106Z,7.60
2022-09-12T06:37:21.507Z,8.10
2022-09-12T06:39:49.184Z,8.50
2022-09-12T06:42:16.629Z,7.93
2022-09-12T06:44:45.384Z,7.60
2022-09-12T06:47:13.102Z,7.33
2022-09-12T06:49:40.504Z,6.80
2022-09-12T06:52:08.300Z,7.23
2022-09-12T06:54:35.668Z,6.97
2022-09-12T06:57:03.326Z,7.20
2022-09-12T06:59:30.728Z,7.43
2022-09-12T07:01:59.545Z,7.53
2022-09-12T07:04:27.731Z,7.67
2022-09-12T07:06:55.158Z,7.50
2022-09-12T07:09:22.525Z,7.67
2022-09-12T07:11:49.950Z,7.97
2022-09-12T07:14:17.322Z,7.63
2022-09-12T07:16:44.778Z,7.33
2022-09-12T07:19:13.660Z,7.80
2022-09-12T07:21:41.192Z,7.80
2022-09-12T07:24:09.752Z,6.90
2022-09-12T07:26:37.126Z,7.70
2022-09-12T07:29:25.514Z,7.93
2022-09-12T07:31:52.549Z,8.43
2022-09-12T07:34:21.315Z,7.43
2022-09-12T07:36:48.751Z,8.27
2022-09-12T07:39:16.139Z,8.07
2022-09-12T07:41:43.524Z,7.80
2022-09-12T07:44:10.975Z,8.10
2022-09-12T07:46:39.807Z,7.93
2022-09-12T07:49:08.448Z,8.10
2022-09-12T07:51:37.443Z,8.20
2022-09-12T07:54:08.999Z,8.07
2022-09-12T07:56:39.154Z,7.80
2022-09-12T07:59:07.053Z,8.87
2022-09-12T08:01:34.778Z,8.10
2022-09-12T08:04:03.413Z,7.60
2022-09-12T08:06:32.110Z,8.30
2022-09-12T08:09:01.907Z,7.53
2022-09-12T08:11:30.146Z,7.77
2022-09-12T08:13:58.500Z,8.40
2022-09-12T08:16:26.658Z,8.13
2022-09-12T08:18:54.171Z,7.93
2022-09-12T08:21:22.226Z,7.63
2022-09-12T08:23:52.695Z,8.13
2022-09-12T08:26:21.682Z,8.43
2022-09-12T08:28:49.169Z,7.60
2022-09-12T08:31:18.094Z,7.63
2022-09-12T08:33:45.530Z,7.70
2022-09-12T08:36:13.823Z,7.93
2022-09-12T08:38:42.466Z,7.47
2022-09-12T08:41:12.584Z,7.67
2022-09-12T08:43:52.077Z,7.70
2022-09-12T08:46:24.067Z,7.53
2022-09-12T08:48:52.673Z,7.60
2022-09-12T08:51:21.119Z,6.80
2022-09-12T08:53:50.918Z,7.13
2022-09-12T08:56:18.598Z,7.00
2022-09-12T08:58:47.589Z,7.63
2022-09-12T09:01:20.738Z,7.90
2022-09-12T09:03:56.503Z,7.70
2022-09-12T09:06:34.466Z,5.83
2022-09-12T09:09:05.979Z,7.30
2022-09-12T09:11:40.331Z,7.97
2022-09-12T09:14:34.082Z,7.60
2022-09-12T09:17:01.862Z,7.57
2022-09-12T09:19:32.857Z,7.20
2022-09-12T09:22:01.956Z,6.70
2022-09-12T09:24:33.916Z,5.90
2022-09-12T09:27:02.654Z,6.63
2022-09-12T09:29:34.624Z,6.77
2022-09-12T09:32:04.589Z,6.73
2022-09-12T09:34:33.049Z,6.33
2022-09-12T09:37:03.611Z,6.53
2022-09-12T09:39:42.789Z,6.13
2022-09-12T09:42:13.866Z,6.27
2022-09-12T09:44:43.973Z,5.10
2022-09-12T09:47:11.788Z,5.87
2022-09-12T09:49:39.795Z,6.50
2022-09-12T09:52:08.331Z,5.60
2022-09-12T09:54:37.674Z,6.00
2022-09-12T09:57:05.584Z,6.70
2022-09-12T09:59:33.588Z,5.67
2022-09-12T10:02:05.086Z,6.07
2022-09-12T10:04:35.969Z,5.30
2022-09-12T10:07:05.894Z,5.83
2022-09-12T10:09:34.020Z,5.23
2022-09-12T10:12:03.146Z,4.80
2022-09-12T10:14:36.008Z,4.70
2022-09-12T10:17:22.364Z,5.63
2022-09-12T10:20:04.594Z,4.83
2022-09-12T10:22:37.423Z,4.83
2022-09-12T10:25:11.958Z,4.67
2022-09-12T10:27:39.369Z,4.83
2022-09-12T10:30:08.284Z,5.13
2022-09-12T10:32:38.638Z,4.50
2022-09-12T10:35:09.050Z,4.40
2022-09-12T10:37:37.335Z,4.40
2022-09-12T10:40:06.491Z,4.40
2022-09-12T10:42:43.611Z,8.17
2022-09-12T10:45:19.421Z,4.30
2022-09-12T10:47:48.279Z,3.73
2022-09-12T10:50:23.802Z,4.50
2022-09-12T10:52:51.289Z,4.67
2022-09-12T10:55:18.944Z,4.50
2022-09-12T10:57:54.398Z,4.87
2022-09-12T11:00:27.683Z,4.23
2022-09-12T11:03:03.694Z,5.17
2022-09-12T11:05:40.141Z,4.57
2022-09-12T11:08:12.928Z,4.10
2022-09-12T11:10:45.314Z,4.40
2022-09-12T11:13:17.499Z,4.33
2022-09-12T11:15:52.113Z,4.37
2022-09-12T11:18:29.410Z,3.70
2022-09-12T11:21:09.355Z,4.10
2022-09-12T11:23:46.816Z,4.10
2022-09-12T11:26:29.431Z,3.70
2022-09-12T11:29:03.795Z,4.17
2022-09-12T11:31:39.247Z,3.63
2022-09-12T11:34:10.726Z,3.77
2022-09-12T11:36:42.851Z,3.30
2022-09-12T11:39:14.172Z,3.30
2022-09-12T11:41:42.720Z,3.27
2022-09-12T11:44:14.172Z,3.70
2022-09-12T11:46:42.885Z,3.47
2022-09-12T11:49:18.019Z,3.20
2022-09-12T11:51:49.120Z,3.40
2022-09-12T11:54:22.736Z,3.10
2022-09-12T11:56:51.809Z,3.37
2022-09-12T11:59:25.738Z,3.33
2022-09-12T12:01:56.324Z,3.80
2022-09-12T12:04:27.703Z,3.50
2022-09-12T12:06:57.473Z,3.30
2022-09-12T12:09:24.891Z,3.00
2022-09-12T12:11:55.931Z,3.27
2022-09-12T12:14:24.729Z,2.90
2022-09-12T12:16:52.290Z,3.07
2022-09-12T12:19:32.161Z,3.00
2022-09-12T12:22:05.844Z,3.20
2022-09-12T12:24:33.846Z,2.93
2022-09-12T12:27:02.463Z,3.03
2022-09-12T12:29:44.335Z,3.57
2022-09-12T12:32:25.481Z,3.40
2022-09-12T12:35:02.291Z,3.20
2022-09-12T12:37:51.950Z,3.03
2022-09-12T12:40:22.768Z,3.07
2022-09-12T12:43:05.095Z,2.87
2022-09-12T12:45:59.666Z,2.83
2022-09-12T12:48:27.682Z,3.07
2022-09-12T12:51:15.602Z,2.97
2022-09-12T12:53:43.095Z,2.80
2022-09-12T12:56:26.125Z,3.40
2022-09-12T12:58:58.294Z,2.87
2022-09-12T13:01:25.901Z,3.40
2022-09-12T13:03:55.913Z,2.77
2022-09-12T13:06:29.979Z,2.90
2022-09-12T13:08:59.821Z,2.90
2022-09-12T13:11:31.988Z,2.90
2022-09-12T13:14:00.371Z,2.70
2022-09-12T13:16:35.221Z,2.80
2022-09-12T13:19:04.528Z,2.60
2022-09-12T13:21:33.368Z,2.67
2022-09-12T13:24:02.050Z,2.80
2022-09-12T13:26:29.704Z,2.60
2022-09-12T13:29:12.721Z,2.43
2022-09-12T13:31:43.179Z,2.40
2022-09-12T13:34:18.612Z,2.50
2022-09-12T13:37:00.880Z,2.63
2022-09-12T13:39:30.487Z,3.20
2022-09-12T13:42:13.061Z,2.33
2022-09-12T13:44:43.071Z,2.40
2022-09-12T13:47:14.528Z,2.50
2022-09-12T13:49:42.558Z,2.40
2022-09-12T13:52:15.265Z,2.90
2022-09-12T13:54:45.036Z,3.27
2022-09-12T13:57:28.122Z,2.80
2022-09-12T13:59:55.964Z,2.60
2022-09-12T14:02:24.454Z,3.03
2022-09-12T14:05:10.316Z,3.00
2022-09-12T14:07:52.392Z,2.60
2022-09-12T14:10:24.376Z,2.53
2022-09-12T14:12:51.819Z,2.60
2022-09-12T14:15:23.412Z,2.70
2022-09-12T14:17:52.697Z,2.50
2022-09-12T14:20:23.187Z,2.50
2022-09-12T14:22:51.323Z,2.70
2022-09-12T14:25:19.484Z,2.67
2022-09-12T14:27:50.738Z,2.70
2022-09-12T14:30:21.973Z,2.90
2022-09-12T14:33:03.410Z,2.83
2022-09-12T14:35:32.465Z,2.80
2022-09-12T14:38:07.154Z,2.70
2022-09-12T14:40:41.149Z,3.10
2022-09-12T14:43:17.750Z,2.73
2022-09-12T14:45:45.276Z,2.70
2022-09-12T14:48:17.330Z,2.70
2022-09-12T14:50:45.034Z,2.70
2022-09-12T14:53:22.899Z,2.73
2022-09-12T14:55:53.426Z,2.80
2022-09-12T14:58:27.170Z,3.00
2022-09-12T15:00:55.455Z,2.90
2022-09-12T15:03:27.996Z,3.03
2022-09-12T15:05:55.676Z,3.60
2022-09-12T15:08:23.148Z,3.00
2022-09-12T15:10:50.615Z,3.07
2022-09-12T15:13:21.841Z,3.30
2022-09-12T15:15:51.702Z,2.73
2022-09-12T15:18:19.624Z,3.10
2022-09-12T15:20:48.601Z,3.23
2022-09-12T15:23:18.229Z,3.00
2022-09-12T15:25:45.678Z,3.37
2022-09-12T15:28:17.427Z,3.30
2022-09-12T15:30:44.985Z,3.80
2022-09-12T15:33:13.871Z,3.00
2022-09-12T15:35:41.312Z,3.20
2022-09-12T15:38:08.663Z,3.27
2022-09-12T15:40:36.241Z,3.00
2022-09-12T15:43:04.011Z,3.17
2022-09-12T15:45:32.339Z,3.20
2022-09-12T15:47:59.890Z,3.00
2022-09-12T15:50:29.075Z,3.37
2022-09-12T15:52:56.812Z,3.00
2022-09-12T15:55:25.175Z,3.00
2022-09-12T15:57:52.556Z,3.20
2022-09-12T16:00:20.416Z,3.07
2022-09-12T16:02:48.503Z,3.00
2022-09-12T16:05:17.100Z,3.30
2022-09-12T16:07:46.114Z,3.10
2022-09-12T16:10:17.296Z,3.17
2022-09-12T16:12:45.411Z,3.23
2022-09-12T16:15:13.576Z,3.10
2022-09-12T16:17:40.985Z,3.40
2022-09-12T16:20:08.992Z,3.50
2022-09-12T16:22:36.447Z,3.50
2022-09-12T16:25:05.411Z,3.87
2022-09-12T16:27:33.031Z,3.20
2022-09-12T16:30:00.866Z,3.60
2022-09-12T16:32:28.258Z,3.67
2022-09-12T16:34:55.640Z,3.60
2022-09-12T16:37:23.132Z,3.90
2022-09-12T16:39:50.554Z,3.60
2022-09-12T16:42:19.700Z,4.03
2022-09-12T16:44:47.207Z,3.20
2022-09-12T16:47:14.698Z,3.10
2022-09-12T16:49:42.079Z,3.67
2022-09-12T16:52:09.820Z,3.60
2022-09-12T16:54:37.398Z,3.53
2022-09-12T16:57:06.504Z,3.30
2022-09-12T16:59:35.358Z,3.50
2022-09-12T17:02:03.252Z,3.97
2022-09-12T17:04:30.691Z,3.80
2022-09-12T17:06:59.425Z,3.30
2022-09-12T17:09:28.157Z,3.50
2022-09-12T17:11:55.781Z,3.33
2022-09-12T17:14:23.280Z,3.60
2022-09-12T17:16:52.290Z,3.37
2022-09-12T17:19:20.749Z,3.70
2022-09-12T17:21:48.768Z,3.47
2022-09-12T17:24:16.142Z,3.50
2022-09-12T17:26:43.636Z,3.60
2022-09-12T17:29:11.835Z,3.30
2022-09-12T17:31:39.282Z,3.23
2022-09-12T17:34:08.587Z,3.50
2022-09-12T17:36:35.964Z,3.67
2022-09-12T17:39:04.206Z,3.50
2022-09-12T17:41:32.779Z,3.73
2022-09-12T17:44:01.251Z,3.40
2022-09-12T17:46:32.846Z,3.70
2022-09-12T17:49:00.926Z,3.70
2022-09-12T17:51:30.703Z,3.80
2022-09-12T17:54:00.599Z,3.43
2022-09-12T17:56:29.106Z,3.77
2022-09-12T17:58:56.814Z,4.00
2022-09-12T18:01:42.357Z,3.60
2022-09-12T18:04:10.486Z,3.30
2022-09-12T18:06:40.051Z,3.90
2022-09-12T18:09:08.496Z,3.63
2022-09-12T18:11:36.215Z,3.67
2022-09-12T18:14:03.715Z,3.80
2022-09-12T18:16:31.415Z,3.70
2022-09-12T18:19:01.276Z,4.07
2022-09-12T18:21:28.931Z,3.50
2022-09-12T18:23:59.255Z,3.70
2022-09-12T18:26:27.285Z,3.50
2022-09-12T18:28:54.704Z,3.83
2022-09-12T18:31:23.992Z,4.00
2022-09-12T18:33:51.747Z,3.53
2022-09-12T18:36:19.725Z,3.63
2022-09-12T18:38:47.780Z,4.20
2022-09-12T18:41:17.936Z,3.33
2022-09-12T18:43:45.349Z,3.47
2022-09-12T18:46:13.930Z,3.77
2022-09-12T18:48:41.363Z,3.13
2022-09-12T18:51:10.798Z,3.00
2022-09-12T18:53:38.623Z,3.20
2022-09-12T18:56:08.541Z,3.40
2022-09-12T18:58:37.722Z,3.10
2022-09-12T19:01:15.424Z,3.20
2022-09-12T19:03:42.965Z,3.23
2022-09-12T19:06:11.819Z,3.00
2022-09-12T19:08:39.463Z,3.70
2022-09-12T19:11:07.692Z,3.40
2022-09-12T19:13:37.387Z,3.30
2022-09-12T19:16:06.249Z,3.40
2022-09-12T19:18:34.532Z,3.57
2022-09-12T19:21:02.016Z,3.20
2022-09-12T19:23:31.107Z,3.10
2022-09-12T19:25:58.746Z,3.33
2022-09-12T19:28:26.278Z,3.50
2022-09-12T19:30:55.141Z,3.53
2022-09-12T19:33:22.626Z,3.10
2022-09-12T19:35:50.042Z,3.07
2022-09-12T19:38:17.706Z,3.57
2022-09-12T19:40:45.383Z,3.40
2022-09-12T19:43:12.778Z,3.20
2022-09-12T19:45:47.593Z,3.47
2022-09-12T19:48:16.323Z,2.83
2022-09-12T19:50:43.696Z,3.40
2022-09-12T19:53:11.180Z,3.13
2022-09-12T19:55:38.973Z,2.97
2022-09-12T19:58:06.568Z,3.00
2022-09-12T20:00:34.194Z,3.50
2022-09-12T20:03:01.592Z,3.30
2022-09-12T20:05:30.400Z,3.10
2022-09-12T20:07:57.973Z,3.57
2022-09-12T20:10:25.670Z,3.00
2022-09-12T20:12:53.066Z,3.10
2022-09-12T20:15:20.568Z,3.10
2022-09-12T20:17:47.963Z,3.57
2022-09-12T20:20:15.438Z,3.50
2022-09-12T20:22:44.173Z,3.20
2022-09-12T20:25:11.591Z,3.60
2022-09-12T20:27:39.018Z,3.63
2022-09-12T20:30:06.957Z,3.30
2022-09-12T20:32:34.455Z,3.33
2022-09-12T20:35:01.891Z,3.50
2022-09-12T20:37:30.455Z,3.70
2022-09-12T20:39:59.211Z,3.90
2022-09-12T20:42:26.675Z,3.53
2022-09-12T20:44:54.064Z,3.63
2022-09-12T20:47:21.408Z,3.87
2022-09-12T20:49:48.835Z,3.90
2022-09-12T20:52:16.463Z,3.90
2022-09-12T20:54:43.830Z,3.90
2022-09-12T20:57:12.553Z,3.67
2022-09-12T20:59:42.453Z,3.63
2022-09-12T21:02:10.950Z,3.53
2022-09-12T21:04:38.432Z,3.50
2022-09-12T21:07:05.889Z,3.83
2022-09-12T21:09:33.488Z,3.60
2022-09-12T21:12:00.872Z,4.07
2022-09-12T21:14:29.613Z,4.20
2022-09-12T21:16:56.982Z,4.03
2022-09-12T21:19:24.383Z,3.80
2022-09-12T21:21:51.783Z,3.53
2022-09-12T21:24:19.261Z,3.40
2022-09-12T21:26:46.901Z,3.57
2022-09-12T21:29:14.267Z,3.30
2022-09-12T21:31:43.463Z,3.77
2022-09-12T21:34:10.927Z,3.73
2022-09-12T21:36:38.433Z,3.97
2022-09-12T21:39:06.780Z,3.73
2022-09-12T21:41:34.603Z,3.60
2022-09-12T21:44:02.140Z,3.73
2022-09-12T21:46:29.596Z,3.60
2022-09-12T21:48:58.379Z,3.63
2022-09-12T21:51:25.815Z,3.70
2022-09-12T21:53:53.218Z,3.63
2022-09-12T21:56:20.999Z,3.63
2022-09-12T21:58:48.381Z,4.23
2022-09-12T22:01:15.769Z,3.90
2022-09-12T22:03:44.795Z,3.50
2022-09-12T22:06:14.712Z,3.90
2022-09-12T22:08:42.261Z,3.70
2022-09-12T22:11:10.275Z,4.53
2022-09-12T22:13:39.107Z,4.40
2022-09-12T22:16:07.583Z,4.47
2022-09-12T22:18:35.139Z,3.80
2022-09-12T22:21:03.342Z,4.10
2022-09-12T22:23:49.789Z,4.17
2022-09-12T22:26:17.983Z,4.20
2022-09-12T22:28:47.174Z,4.10
2022-09-12T22:31:15.149Z,4.07
2022-09-12T22:33:42.877Z,3.83
2022-09-12T22:36:10.734Z,4.33
2022-09-12T22:38:39.816Z,3.77
2022-09-12T22:41:08.182Z,4.10
2022-09-12T22:43:35.816Z,3.77
2022-09-12T22:46:06.328Z,4.03
2022-09-12T22:48:33.945Z,3.63
2022-09-12T22:51:01.308Z,3.47
2022-09-12T22:53:28.877Z,3.93
2022-09-12T22:55:57.569Z,3.70
2022-09-12T22:58:25.012Z,3.87
2022-09-12T23:00:53.103Z,4.20
2022-09-12T23:03:21.317Z,3.63
2022-09-12T23:05:49.075Z,3.70
2022-09-12T23:08:16.846Z,3.60
2022-09-12T23:10:44.399Z,3.83
2022-09-12T23:13:13.302Z,3.93
2022-09-12T23:15:40.915Z,3.90
2022-09-12T23:18:08.380Z,3.80
2022-09-12T23:20:35.795Z,4.40
2022-09-12T23:23:03.169Z,4.00
2022-09-12T23:25:30.912Z,4.17
2022-09-12T23:27:58.539Z,4.20
2022-09-12T23:30:27.311Z,3.60
2022-09-12T23:32:56.763Z,3.90
2022-09-12T23:35:24.164Z,3.73
2022-09-12T23:37:51.506Z,3.70
2022-09-12T23:40:18.950Z,4.10
2022-09-12T23:42:46.405Z,4.00
2022-09-12T23:45:13.806Z,4.00
2022-09-12T23:47:42.569Z,3.80
2022-09-12T23:50:10.023Z,3.60
2022-09-12T23:52:37.409Z,4.43
2022-09-12T23:55:05.020Z,4.10
2022-09-12T23:57:32.415Z,3.87
2022-09-12T23:59:59.778Z,3.70
